Time;durP1;ratioP1;P1;durP2;ratioP2;P2;SDS_P1;SDS_P2;PMS_P1;PMS_P2;Temp;Humidity;BMP_temperature;BMP_pressure;BME280_temperature;BME280_humidity;BME280_pressure;Samples;Min_cycle;Max_cycle;Signal;HPM_P1;HPM_P2
2022/11/26 00:00:35;;;;;;;1.00;0.93;;;6.40;99.90;;;;;;5037031;28;20214;-90
2022/11/26 00:03:01;;;;;;;4.50;1.40;;;6.40;99.90;;;;;;5002728;28;20258;-90
2022/11/26 00:05:29;;;;;;;1.10;1.00;;;6.50;99.90;;;;;;5000712;28;20226;-90
2022/11/26 00:07:58;;;;;;;3.00;2.17;;;6.40;99.90;;;;;;5019114;28;20681;-90
2022/11/26 00:10:33;;;;;;;1.80;1.17;;;6.50;99.90;;;;;;5034540;28;20215;-89
2022/11/26 00:12:59;;;;;;;3.37;2.20;;;6.50;99.90;;;;;;5034436;28;20232;-90
2022/11/26 00:15:28;;;;;;;0.77;0.77;;;6.50;99.90;;;;;;5018074;28;20197;-90
2022/11/26 00:17:54;;;;;;;1.13;1.13;;;6.50;99.90;;;;;;5034243;28;20649;-89
2022/11/26 00:20:23;;;;;;;1.80;1.70;;;6.50;99.90;;;;;;5016994;28;20699;-89
2022/11/26 00:22:53;;;;;;;2.20;0.83;;;6.40;99.90;;;;;;5050176;28;20549;-90
2022/11/26 00:25:25;;;;;;;7.63;1.13;;;6.40;99.90;;;;;;5037024;28;20225;-90
2022/11/26 00:27:53;;;;;;;1.80;1.27;;;6.40;99.90;;;;;;5017290;28;20221;-89
2022/11/26 00:30:25;;;;;;;2.40;0.93;;;6.50;99.90;;;;;;5037184;28;20214;-90
2022/11/26 00:32:52;;;;;;;2.00;1.20;;;6.50;99.90;;;;;;5035656;28;20291;-90
2022/11/26 00:35:19;;;;;;;1.63;1.47;;;6.50;99.90;;;;;;5034753;28;20637;-89
2022/11/26 00:37:49;;;;;;;1.03;1.03;;;6.40;99.90;;;;;;5034577;28;20273;-90
2022/11/26 00:40:34;;;;;;;1.37;1.27;;;6.40;99.90;;;;;;5035619;28;20629;-90
2022/11/26 00:42:59;;;;;;;4.80;1.57;;;6.40;99.90;;;;;;5035141;28;20214;-89
2022/11/26 00:45:28;;;;;;;20.80;1.93;;;6.40;99.90;;;;;;5003179;28;20212;-90
2022/11/26 00:47:54;;;;;;;0.67;0.67;;;6.40;99.90;;;;;;5035021;28;20653;-90
2022/11/26 00:50:23;;;;;;;0.70;0.70;;;6.40;99.90;;;;;;5034711;28;20233;-90
2022/11/26 00:52:51;;;;;;;1.07;1.07;;;6.30;99.90;;;;;;5033694;28;20707;-89
2022/11/26 00:55:38;;;;;;;3.73;1.53;;;6.40;99.90;;;;;;5033748;28;20221;-90
2022/11/26 00:58:06;;;;;;;4.73;1.10;;;6.40;99.90;;;;;;5035088;28;20210;-90
2022/11/26 01:00:33;;;;;;;1.23;1.23;;;6.40;99.90;;;;;;5033561;28;20186;-90
2022/11/26 01:03:00;;;;;;;1.80;1.03;;;6.40;99.90;;;;;;5035579;28;20270;-91
2022/11/26 01:05:32;;;;;;;1.57;0.80;;;6.40;99.90;;;;;;5018177;28;20699;-89
2022/11/26 01:08:15;;;;;;;6.70;1.53;;;6.50;99.90;;;;;;5036026;28;20237;-90
2022/11/26 01:10:41;;;;;;;1.90;1.80;;;6.50;99.90;;;;;;5034290;28;20717;-89
2022/11/26 01:13:09;;;;;;;1.23;1.00;;;6.50;99.90;;;;;;5001481;28;20218;-90
2022/11/26 01:15:37;;;;;;;3.33;1.00;;;6.50;99.90;;;;;;5036407;28;20695;-90
2022/11/26 01:18:14;;;;;;;3.67;1.43;;;6.40;99.90;;;;;;5021454;28;20191;-89
2022/11/26 01:20:40;;;;;;;1.63;1.53;;;6.40;99.90;;;;;;5039093;28;20678;-90
2022/11/26 01:23:11;;;;;;;1.33;0.93;;;6.40;99.90;;;;;;5020191;28;20215;-90
2022/11/26 01:25:37;;;;;;;0.70;0.70;;;6.50;99.90;;;;;;5036374;28;20219;-89
2022/11/26 01:28:04;;;;;;;0.77;0.70;;;6.50;99.90;;;;;;5039244;28;20223;-90
2022/11/26 01:30:32;;;;;;;0.37;0.37;;;6.50;99.90;;;;;;5020968;28;20557;-90
2022/11/26 01:33:01;;;;;;;0.93;0.53;;;6.50;99.90;;;;;;5020766;28;20422;-89
2022/11/26 01:35:28;;;;;;;10.00;1.37;;;6.40;99.90;;;;;;5019899;28;20216;-91
2022/11/26 01:37:54;;;;;;;4.53;2.13;;;6.50;99.90;;;;;;5021918;28;20738;-91
2022/11/26 01:40:28;;;;;;;5.03;0.63;;;6.50;99.90;;;;;;5021059;28;20707;-90
2022/11/26 01:43:16;;;;;;;2.13;0.93;;;6.40;99.90;;;;;;5035786;28;20210;-91
2022/11/26 01:45:42;;;;;;;1.03;0.93;;;6.50;99.90;;;;;;5036413;28;20233;-90
2022/11/26 01:48:40;;;;;;;7.27;1.67;;;6.50;99.90;;;;;;5004129;28;20209;-90
2022/11/26 01:51:08;;;;;;;1.13;1.03;;;6.50;99.90;;;;;;5035868;28;20206;-90
2022/11/26 01:53:37;;;;;;;5.57;1.67;;;6.50;99.90;;;;;;5022016;28;20213;-90
2022/11/26 01:56:12;;;;;;;1.70;0.87;;;6.50;99.90;;;;;;5052977;28;20286;-90
2022/11/26 01:58:45;;;;;;;2.23;1.50;;;6.50;99.90;;;;;;5037482;28;20222;-90
2022/11/26 02:01:11;;;;;;;2.43;1.77;;;6.50;99.90;;;;;;5035777;28;20276;-90
2022/11/26 02:03:56;;;;;;;5.77;1.70;;;6.50;99.90;;;;;;5020369;28;20222;-90
2022/11/26 02:06:28;;;;;;;2.97;1.40;;;6.50;99.90;;;;;;5036315;28;20179;-89
2022/11/26 02:08:55;;;;;;;1.47;0.97;;;6.40;99.90;;;;;;5037193;28;20560;-89
2022/11/26 02:11:23;;;;;;;0.77;0.77;;;6.40;99.90;;;;;;5001375;28;20221;-89
2022/11/26 02:13:54;;;;;;;0.90;0.90;;;6.30;99.90;;;;;;5038641;28;20262;-91
2022/11/26 02:16:41;;;;;;;0.80;0.80;;;6.30;99.90;;;;;;5054214;28;20272;-91
2022/11/26 02:19:44;;;;;;;0.90;0.90;;;6.30;99.90;;;;;;5034209;28;20213;-90
2022/11/26 02:22:22;;;;;;;0.53;0.53;;;6.30;99.90;;;;;;5036829;28;20214;-90
2022/11/26 02:25:29;;;;;;;2.63;0.93;;;6.40;99.90;;;;;;5037517;28;20316;-90
2022/11/26 02:28:32;;;;;;;3.60;1.70;;;6.40;99.90;;;;;;5035639;28;20248;-90
2022/11/26 02:31:06;;;;;;;2.07;1.63;;;6.40;99.90;;;;;;5035070;28;20229;-89
2022/11/26 02:33:55;;;;;;;2.10;1.13;;;6.40;99.90;;;;;;5036339;28;20190;-90
2022/11/26 02:36:49;;;;;;;0.83;0.83;;;6.40;99.90;;;;;;5028300;28;20636;-90
2022/11/26 02:39:18;;;;;;;2.00;1.90;;;6.40;99.90;;;;;;5052686;28;20194;-89
2022/11/26 02:41:47;;;;;;;1.37;1.27;;;6.30;99.90;;;;;;5037887;28;20245;-91
2022/11/26 02:44:16;;;;;;;1.33;1.03;;;6.40;99.90;;;;;;5034014;28;20560;-90
2022/11/26 02:46:44;;;;;;;7.47;1.37;;;6.30;99.90;;;;;;5036938;28;20311;-90
2022/11/26 02:49:16;;;;;;;3.70;1.47;;;6.40;99.90;;;;;;5034183;28;20288;-89
2022/11/26 02:51:43;;;;;;;10.30;3.20;;;6.40;99.90;;;;;;5036396;28;20558;-89
2022/11/26 02:54:10;;;;;;;1.73;1.60;;;6.40;99.90;;;;;;5021647;28;20189;-89
2022/11/26 02:56:38;;;;;;;2.23;0.90;;;6.40;99.90;;;;;;5002773;28;20213;-90
2022/11/26 02:59:04;;;;;;;1.83;1.30;;;6.40;99.90;;;;;;5018961;28;20225;-89
2022/11/26 03:01:55;;;;;;;1.13;1.13;;;6.50;99.90;;;;;;5002297;28;21046;-89
2022/11/26 03:04:25;;;;;;;1.23;1.13;;;6.50;99.90;;;;;;5035579;28;20226;-90
2022/11/26 03:06:55;;;;;;;6.63;1.83;;;6.50;99.90;;;;;;5035700;28;20809;-89
2022/11/26 03:09:21;;;;;;;0.60;0.60;;;6.50;99.90;;;;;;5034276;28;20219;-90
2022/11/26 03:11:47;;;;;;;2.50;1.10;;;6.50;99.90;;;;;;5035258;28;20182;-89
2022/11/26 03:14:13;;;;;;;0.83;0.70;;;6.50;99.90;;;;;;5021291;28;20228;-90
2022/11/26 03:16:38;;;;;;;1.93;1.83;;;6.50;99.90;;;;;;5003597;28;20221;-91
2022/11/26 03:19:04;;;;;;;0.93;0.93;;;6.60;99.90;;;;;;5000872;28;20214;-90
2022/11/26 03:21:33;;;;;;;1.77;1.67;;;6.60;99.90;;;;;;5002803;28;20209;-90
2022/11/26 03:23:59;;;;;;;23.77;1.43;;;6.60;99.90;;;;;;5027261;28;20254;-90
2022/11/26 03:26:25;;;;;;;0.97;0.97;;;6.50;99.90;;;;;;5019372;28;20229;-90
2022/11/26 03:28:51;;;;;;;0.77;0.77;;;6.50;99.90;;;;;;5001618;28;20209;-91
2022/11/26 03:31:16;;;;;;;0.50;0.50;;;6.60;99.90;;;;;;5002024;28;20214;-90
2022/11/26 03:33:42;;;;;;;1.00;1.00;;;6.70;99.90;;;;;;5003014;28;20224;-90
2022/11/26 03:36:08;;;;;;;2.90;1.53;;;6.70;99.90;;;;;;5018653;28;20190;-91
2022/11/26 03:38:34;;;;;;;1.27;1.13;;;6.80;99.90;;;;;;5018159;28;20265;-90
2022/11/26 03:41:02;;;;;;;3.23;1.57;;;6.80;99.90;;;;;;5000955;28;20605;-91
2022/11/26 03:43:29;;;;;;;1.03;0.80;;;6.80;99.90;;;;;;5036026;28;20327;-90
2022/11/26 03:45:55;;;;;;;2.60;2.10;;;6.80;99.90;;;;;;5042430;28;20756;-89
2022/11/26 03:48:21;;;;;;;0.90;0.90;;;6.80;99.90;;;;;;5020891;28;20233;-89
2022/11/26 03:50:47;;;;;;;7.23;1.23;;;6.90;99.90;;;;;;5004471;28;20213;-90
2022/11/26 03:53:13;;;;;;;5.87;1.73;;;6.90;99.90;;;;;;5001363;28;20218;-89
2022/11/26 03:55:39;;;;;;;1.10;0.80;;;6.90;99.90;;;;;;5000950;28;20229;-90
2022/11/26 03:58:04;;;;;;;4.87;2.03;;;6.90;99.90;;;;;;5003368;28;20214;-90
2022/11/26 04:00:30;;;;;;;0.73;0.73;;;6.90;99.90;;;;;;5000181;28;20187;-90
2022/11/26 04:02:56;;;;;;;1.97;1.87;;;6.80;99.90;;;;;;5017272;28;20187;-90
2022/11/26 04:05:21;;;;;;;3.30;2.70;;;6.80;99.90;;;;;;5000416;28;20703;-90
2022/11/26 04:07:47;;;;;;;1.00;1.00;;;6.90;99.90;;;;;;5000644;28;20268;-89
2022/11/26 04:10:13;;;;;;;3.57;3.23;;;6.90;99.90;;;;;;5002638;28;20287;-89
2022/11/26 04:12:39;;;;;;;1.33;1.23;;;6.80;99.90;;;;;;5018990;28;20217;-90
2022/11/26 04:15:05;;;;;;;1.90;1.80;;;6.80;99.90;;;;;;5020851;28;20295;-90
2022/11/26 04:17:30;;;;;;;4.10;1.17;;;6.80;99.90;;;;;;5019117;28;20712;-91
2022/11/26 04:19:56;;;;;;;1.67;1.07;;;6.80;99.90;;;;;;5000455;28;20237;-90
2022/11/26 04:22:22;;;;;;;4.27;2.17;;;6.80;99.90;;;;;;5003387;28;20228;-89
2022/11/26 04:24:48;;;;;;;0.90;0.90;;;6.90;99.90;;;;;;5000467;28;20221;-90
2022/11/26 04:27:13;;;;;;;0.87;0.87;;;6.80;99.90;;;;;;5018297;28;20182;-89
2022/11/26 04:29:39;;;;;;;1.77;1.20;;;6.80;99.90;;;;;;5017862;28;20213;-90
2022/11/26 04:32:05;;;;;;;0.93;0.77;;;6.80;99.90;;;;;;5001358;28;20203;-90
2022/11/26 04:34:31;;;;;;;1.90;1.80;;;6.80;99.90;;;;;;5018040;28;20210;-89
2022/11/26 04:36:57;;;;;;;4.70;1.70;;;6.80;99.90;;;;;;5002609;28;20683;-91
2022/11/26 04:39:22;;;;;;;1.47;1.37;;;6.80;99.90;;;;;;5005014;28;20194;-89
2022/11/26 04:41:48;;;;;;;1.00;1.00;;;6.70;99.90;;;;;;5018300;28;20651;-89
2022/11/26 04:44:14;;;;;;;1.20;1.10;;;6.80;99.90;;;;;;5001368;28;20265;-91
2022/11/26 04:46:40;;;;;;;3.70;2.70;;;6.80;99.90;;;;;;5016218;28;20360;-90
2022/11/26 04:49:06;;;;;;;0.90;0.90;;;6.80;99.90;;;;;;5020526;28;20222;-90
2022/11/26 04:51:32;;;;;;;1.60;1.57;;;6.80;99.90;;;;;;5018672;28;20190;-90
2022/11/26 04:53:58;;;;;;;1.53;0.93;;;6.80;99.90;;;;;;5020947;28;20670;-90
2022/11/26 04:56:23;;;;;;;2.20;1.97;;;6.80;99.90;;;;;;5038687;28;20225;-90
2022/11/26 04:58:49;;;;;;;1.07;0.70;;;6.80;99.90;;;;;;5001293;28;20225;-90
2022/11/26 05:01:15;;;;;;;1.17;1.13;;;6.80;99.90;;;;;;5039373;28;20254;-91
2022/11/26 05:03:41;;;;;;;2.07;0.97;;;6.90;99.90;;;;;;5004195;28;20682;-92
2022/11/26 05:06:07;;;;;;;2.47;1.37;;;6.90;99.90;;;;;;5006472;28;20646;-91
2022/11/26 05:08:33;;;;;;;1.47;1.37;;;6.90;99.90;;;;;;5022450;28;20210;-91
2022/11/26 05:11:00;;;;;;;1.43;1.37;;;7.00;99.90;;;;;;5037430;28;20228;-89
2022/11/26 05:13:26;;;;;;;1.83;1.67;;;6.90;99.90;;;;;;5006864;28;20215;-91
2022/11/26 05:15:53;;;;;;;6.60;2.20;;;6.90;99.90;;;;;;5023615;28;20218;-91
2022/11/26 05:18:19;;;;;;;1.57;1.00;;;6.90;99.90;;;;;;5021881;28;20198;-89
2022/11/26 05:20:44;;;;;;;1.70;1.70;;;6.90;99.90;;;;;;5007230;28;20205;-90
2022/11/26 05:23:10;;;;;;;2.03;1.83;;;6.90;99.90;;;;;;5019811;28;20221;-90
2022/11/26 05:25:36;;;;;;;4.73;1.70;;;6.90;99.90;;;;;;5022922;28;20257;-90
2022/11/26 05:28:02;;;;;;;2.87;2.67;;;6.90;99.90;;;;;;5003677;28;20260;-90
2022/11/26 05:30:27;;;;;;;1.63;1.53;;;6.90;99.90;;;;;;5005989;28;20271;-90
2022/11/26 05:32:53;;;;;;;4.77;1.50;;;6.90;99.90;;;;;;5006818;28;20205;-90
2022/11/26 05:35:19;;;;;;;5.23;1.53;;;6.90;99.90;;;;;;5003019;28;20206;-90
2022/11/26 05:37:45;;;;;;;2.83;2.30;;;6.90;99.90;;;;;;5021453;28;20213;-89
2022/11/26 05:40:11;;;;;;;8.87;1.37;;;6.90;99.90;;;;;;5005627;28;20577;-91
2022/11/26 05:42:37;;;;;;;1.97;1.80;;;6.90;99.90;;;;;;5023374;28;20627;-91
2022/11/26 05:45:04;;;;;;;6.20;1.57;;;7.00;99.90;;;;;;5038452;28;20241;-91
2022/11/26 05:47:31;;;;;;;1.37;1.17;;;7.10;99.90;;;;;;5018443;28;20678;-90
2022/11/26 05:49:57;;;;;;;3.17;2.43;;;7.10;99.90;;;;;;5021697;28;20928;-89
2022/11/26 05:52:23;;;;;;;32.20;3.67;;;7.20;99.90;;;;;;5005431;28;20219;-90
2022/11/26 05:54:49;;;;;;;6.80;1.70;;;7.10;99.90;;;;;;5019990;28;20646;-90
2022/11/26 05:57:15;;;;;;;3.40;1.80;;;7.10;99.90;;;;;;5021689;28;20194;-90
2022/11/26 05:59:41;;;;;;;2.10;1.63;;;7.10;99.90;;;;;;5036815;28;20698;-90
2022/11/26 06:02:06;;;;;;;9.60;1.93;;;7.10;99.90;;;;;;5004740;28;20217;-90
2022/11/26 06:04:32;;;;;;;1.80;1.70;;;7.10;99.90;;;;;;5006255;28;20659;-90
2022/11/26 06:06:58;;;;;;;3.67;1.43;;;7.10;99.90;;;;;;5021907;28;20845;-90
2022/11/26 06:09:24;;;;;;;1.13;1.13;;;7.10;99.90;;;;;;5005327;28;20214;-91
2022/11/26 06:11:50;;;;;;;3.03;2.20;;;7.00;99.90;;;;;;5020011;28;20190;-91
2022/11/26 06:14:16;;;;;;;7.40;2.27;;;7.00;99.90;;;;;;5018144;28;20224;-89
2022/11/26 06:16:42;;;;;;;2.30;2.07;;;7.00;99.90;;;;;;5018003;28;20221;-91
2022/11/26 06:19:09;;;;;;;1.57;1.53;;;7.00;99.90;;;;;;5018214;28;20226;-91
2022/11/26 06:21:35;;;;;;;2.30;1.97;;;7.00;99.90;;;;;;5036039;28;20182;-91
2022/11/26 06:24:01;;;;;;;1.80;1.70;;;6.90;99.90;;;;;;5021189;28;20214;-91
2022/11/26 06:26:27;;;;;;;11.40;1.37;;;6.90;99.90;;;;;;5004468;28;20221;-91
2022/11/26 06:28:53;;;;;;;2.37;1.70;;;6.90;99.90;;;;;;5004270;28;20218;-90
2022/11/26 06:31:19;;;;;;;9.43;3.13;;;6.90;99.90;;;;;;5037047;28;20221;-91
2022/11/26 06:33:45;;;;;;;9.57;2.00;;;6.90;99.90;;;;;;5020048;28;20287;-90
2022/11/26 06:36:10;;;;;;;1.90;1.80;;;6.90;99.90;;;;;;5002865;28;20191;-91
2022/11/26 06:38:36;;;;;;;1.80;1.33;;;6.90;99.90;;;;;;5005073;28;20210;-90
2022/11/26 06:41:07;;;;;;;1.33;1.23;;;6.90;99.90;;;;;;5002671;28;20617;-90
2022/11/26 06:43:33;;;;;;;3.60;1.37;;;6.90;99.90;;;;;;5054473;28;20226;-90
2022/11/26 06:46:06;;;;;;;2.67;1.50;;;6.90;99.90;;;;;;5034572;28;20234;-90
2022/11/26 06:48:33;;;;;;;3.00;1.77;;;6.90;99.90;;;;;;5037457;28;20643;-90
2022/11/26 06:51:20;;;;;;;4.77;2.00;;;6.90;99.90;;;;;;5019267;28;20509;-91
2022/11/26 06:53:49;;;;;;;9.03;1.63;;;6.90;99.90;;;;;;5035995;28;20215;-91
2022/11/26 06:56:16;;;;;;;1.53;1.43;;;6.90;99.90;;;;;;5004827;28;20214;-90
2022/11/26 06:58:43;;;;;;;3.60;1.57;;;6.90;99.90;;;;;;5037335;28;20215;-90
2022/11/26 07:01:13;;;;;;;2.40;1.93;;;6.90;99.90;;;;;;5022129;28;20869;-90
2022/11/26 07:03:39;;;;;;;10.33;1.70;;;6.90;99.90;;;;;;5035305;28;20257;-90
2022/11/26 07:06:13;;;;;;;1.50;1.37;;;6.90;99.90;;;;;;5052959;28;20185;-89
2022/11/26 07:08:39;;;;;;;1.37;1.27;;;6.90;99.90;;;;;;5019079;28;20229;-89
2022/11/26 07:11:04;;;;;;;2.40;2.30;;;7.00;99.90;;;;;;5001574;28;20225;-90
2022/11/26 07:13:30;;;;;;;1.40;1.40;;;6.90;99.90;;;;;;5015929;28;20302;-90
2022/11/26 07:16:01;;;;;;;6.43;5.90;;;6.90;99.90;;;;;;5001519;28;20236;-91
2022/11/26 07:18:27;;;;;;;1.73;1.47;;;6.90;99.90;;;;;;5035232;28;20178;-91
2022/11/26 07:20:53;;;;;;;5.13;4.43;;;6.90;99.90;;;;;;5053504;28;20179;-90
2022/11/26 07:23:21;;;;;;;1.57;1.47;;;6.90;99.90;;;;;;5003704;28;20625;-91
2022/11/26 07:25:47;;;;;;;4.97;3.60;;;6.90;99.90;;;;;;5020329;28;20328;-91
2022/11/26 07:28:13;;;;;;;1.93;1.80;;;6.90;99.90;;;;;;5002110;28;20668;-91
2022/11/26 07:30:38;;;;;;;8.23;6.63;;;7.00;99.90;;;;;;5017846;28;20218;-90
2022/11/26 07:33:04;;;;;;;13.43;9.03;;;6.90;99.90;;;;;;5020035;28;20190;-90
2022/11/26 07:35:31;;;;;;;9.07;5.57;;;6.90;99.90;;;;;;5003169;28;20221;-90
2022/11/26 07:37:58;;;;;;;8.57;7.40;;;6.90;99.90;;;;;;5005132;28;20209;-90
2022/11/26 07:40:24;;;;;;;11.57;5.10;;;7.00;99.90;;;;;;5017377;28;20605;-90
2022/11/26 07:42:50;;;;;;;9.50;2.77;;;7.00;99.90;;;;;;5001875;28;20296;-89
2022/11/26 07:45:15;;;;;;;6.43;3.70;;;7.10;99.90;;;;;;5003765;28;20238;-88
2022/11/26 07:47:41;;;;;;;4.30;3.53;;;7.20;99.90;;;;;;5018255;28;20278;-90
2022/11/26 07:50:07;;;;;;;4.37;2.37;;;7.40;99.90;;;;;;5016175;28;20210;-91
2022/11/26 07:52:33;;;;;;;6.33;4.60;;;7.50;99.90;;;;;;5003923;28;20368;-91
2022/11/26 07:54:59;;;;;;;1.80;1.70;;;7.50;99.90;;;;;;4999841;28;20301;-92
2022/11/26 07:57:25;;;;;;;2.33;2.13;;;7.60;99.90;;;;;;5017212;28;20186;-92
2022/11/26 07:59:50;;;;;;;1.60;1.50;;;7.60;99.90;;;;;;5015568;28;20182;-92
2022/11/26 08:02:17;;;;;;;3.23;2.70;;;7.60;99.90;;;;;;5000949;28;20555;-93
2022/11/26 08:04:42;;;;;;;9.77;3.47;;;7.60;99.90;;;;;;5017263;28;20629;-94
2022/11/26 08:07:08;;;;;;;1.83;1.73;;;7.60;99.90;;;;;;5034027;28;20225;-93
2022/11/26 08:09:34;;;;;;;1.87;1.77;;;7.60;99.90;;;;;;5002783;28;20205;-93
2022/11/26 08:12:00;;;;;;;2.60;2.40;;;7.60;99.90;;;;;;5034771;28;20359;-91
2022/11/26 08:14:26;;;;;;;1.20;1.10;;;7.70;99.90;;;;;;5020990;28;20690;-92
2022/11/26 08:16:51;;;;;;;1.83;1.70;;;7.70;99.90;;;;;;5016037;28;20220;-92
2022/11/26 08:19:17;;;;;;;4.50;2.47;;;7.70;99.90;;;;;;5001903;28;20268;-92
2022/11/26 08:21:43;;;;;;;2.87;2.60;;;7.70;99.90;;;;;;5035810;28;20682;-92
2022/11/26 08:24:14;;;;;;;4.40;3.03;;;7.80;99.90;;;;;;5003537;28;20213;-92
2022/11/26 08:26:40;;;;;;;2.13;2.03;;;7.90;99.90;;;;;;5032786;28;20553;-93
2022/11/26 08:29:06;;;;;;;2.70;2.50;;;7.90;99.90;;;;;;5017270;28;20214;-92
2022/11/26 08:31:33;;;;;;;9.83;4.43;;;7.90;99.90;;;;;;5002046;28;20244;-93
2022/11/26 08:33:59;;;;;;;7.13;5.00;;;7.80;99.90;;;;;;5017946;28;20207;-91
2022/11/26 08:36:26;;;;;;;8.57;7.80;;;7.90;99.90;;;;;;5034263;28;20193;-92
2022/11/26 08:38:52;;;;;;;26.77;9.20;;;8.00;99.90;;;;;;5004157;28;20186;-92
2022/11/26 08:41:18;;;;;;;2.83;2.63;;;8.10;99.90;;;;;;5001846;28;20222;-91
2022/11/26 08:43:44;;;;;;;14.20;10.83;;;8.10;99.90;;;;;;4998309;28;20217;-94
2022/11/26 08:46:10;;;;;;;14.83;6.50;;;8.20;99.90;;;;;;5000679;28;20255;-91
2022/11/26 08:48:36;;;;;;;7.87;4.93;;;8.30;99.90;;;;;;5020020;28;20222;-92
2022/11/26 08:51:05;;;;;;;2.53;1.67;;;8.40;99.90;;;;;;5016603;28;20605;-93
2022/11/26 08:53:33;;;;;;;2.90;2.73;;;8.40;99.90;;;;;;5034733;28;20222;-91
2022/11/26 08:56:04;;;;;;;24.07;3.43;;;8.40;99.90;;;;;;5032261;28;20687;-92
2022/11/26 08:58:32;;;;;;;4.03;3.73;;;8.40;99.90;;;;;;5034504;28;20218;-95
2022/11/26 09:00:58;;;;;;;1.70;1.50;;;8.50;99.90;;;;;;5049981;28;20312;-92
2022/11/26 09:03:24;;;;;;;9.63;5.47;;;8.60;99.90;;;;;;5014716;28;20289;-92
2022/11/26 09:05:50;;;;;;;2.17;1.97;;;8.70;99.90;;;;;;5019392;28;20209;-94
2022/11/26 09:08:16;;;;;;;8.80;3.20;;;8.80;99.90;;;;;;5014447;28;20701;-92
2022/11/26 09:10:41;;;;;;;3.97;3.47;;;8.90;99.90;;;;;;5003214;28;20221;-92
2022/11/26 09:13:07;;;;;;;5.47;3.93;;;8.90;99.90;;;;;;5000417;28;20223;-89
2022/11/26 09:15:33;;;;;;;3.67;3.33;;;9.00;99.90;;;;;;5019480;28;20293;-94
2022/11/26 09:18:02;;;;;;;2.77;2.47;;;9.00;99.90;;;;;;5002327;28;20194;-93
2022/11/26 09:20:28;;;;;;;18.40;3.70;;;9.00;99.90;;;;;;5018648;28;20258;-92
2022/11/26 09:22:54;;;;;;;4.47;2.30;;;9.00;99.90;;;;;;5034955;28;20245;-91
2022/11/26 09:25:20;;;;;;;5.77;1.67;;;9.00;99.90;;;;;;5014087;28;20261;-92
2022/11/26 09:27:46;;;;;;;7.03;1.73;;;9.00;99.90;;;;;;5002041;28;20705;-92
2022/11/26 09:30:12;;;;;;;6.03;3.37;;;9.00;99.90;;;;;;5001242;28;20219;-93
2022/11/26 09:32:38;;;;;;;1.50;1.40;;;9.00;99.90;;;;;;5017854;28;20234;-91
2022/11/26 09:35:04;;;;;;;2.33;1.90;;;9.00;99.90;;;;;;4998176;28;20714;-92
2022/11/26 09:37:30;;;;;;;1.73;1.63;;;9.00;99.90;;;;;;5001229;28;20701;-92
2022/11/26 09:39:56;;;;;;;3.43;2.33;;;9.00;99.90;;;;;;5019094;28;20234;-94
2022/11/26 09:42:36;;;;;;;13.33;3.23;;;9.10;99.90;;;;;;5001717;28;20196;-93
2022/11/26 09:45:25;;;;;;;5.10;2.83;;;9.10;99.90;;;;;;5034936;28;20714;-94
2022/11/26 09:47:53;;;;;;;2.90;2.60;;;9.10;99.90;;;;;;5036161;28;20434;-92
2022/11/26 09:50:21;;;;;;;2.63;2.13;;;9.20;99.90;;;;;;5036200;28;20630;-92
2022/11/26 09:52:58;;;;;;;4.80;2.73;;;9.20;99.90;;;;;;5051541;28;20781;-92
2022/11/26 09:55:32;;;;;;;5.23;3.13;;;9.20;99.90;;;;;;5034648;28;20232;-90
2022/11/26 09:58:08;;;;;;;7.00;3.33;;;9.30;99.90;;;;;;5035381;28;20264;-92
2022/11/26 10:00:48;;;;;;;5.67;3.67;;;9.30;99.90;;;;;;5035671;28;20178;-92
2022/11/26 10:03:20;;;;;;;11.70;3.00;;;9.40;99.90;;;;;;5017842;28;20216;-92
2022/11/26 10:05:58;;;;;;;7.57;2.90;;;9.50;99.90;;;;;;5033363;28;20229;-89
2022/11/26 10:08:44;;;;;;;3.37;3.03;;;9.50;99.90;;;;;;5025799;28;20768;-91
2022/11/26 10:11:58;;;;;;;3.33;3.03;;;9.60;99.90;;;;;;5034855;28;20226;-90
2022/11/26 10:14:53;;;;;;;4.67;3.03;;;9.70;99.90;;;;;;5033552;28;20254;-89
2022/11/26 10:17:34;;;;;;;2.90;2.30;;;9.70;99.90;;;;;;5014671;28;20237;-92
2022/11/26 10:20:18;;;;;;;7.23;4.73;;;9.80;99.90;;;;;;5036403;28;20218;-91
2022/11/26 10:22:56;;;;;;;9.63;5.07;;;9.80;99.90;;;;;;5037077;28;20778;-92
2022/11/26 10:25:27;;;;;;;6.17;4.50;;;9.80;99.90;;;;;;5036368;28;20315;-93
2022/11/26 10:27:55;;;;;;;9.77;7.00;;;9.90;99.90;;;;;;5053754;28;20606;-92
2022/11/26 10:30:26;;;;;;;11.67;3.80;;;9.90;99.90;;;;;;5037010;28;20284;-92
2022/11/26 10:32:54;;;;;;;3.70;3.00;;;10.00;99.90;;;;;;5036875;28;20181;-93
2022/11/26 10:35:23;;;;;;;13.37;3.90;;;10.00;99.90;;;;;;5020402;28;20304;-92
2022/11/26 10:37:49;;;;;;;6.67;4.47;;;10.10;99.90;;;;;;5051743;28;20238;-93
2022/11/26 10:40:29;;;;;;;6.90;3.43;;;10.10;99.90;;;;;;5001798;28;20217;-93
2022/11/26 10:43:07;;;;;;;11.53;5.70;;;10.20;99.90;;;;;;5034303;28;20218;-92
2022/11/26 10:45:55;;;;;;;7.67;4.73;;;10.20;99.90;;;;;;5034797;28;20218;-93
2022/11/26 10:48:32;;;;;;;7.97;3.17;;;10.30;99.90;;;;;;5037988;28;20190;-92
2022/11/26 10:51:14;;;;;;;2.77;2.57;;;10.20;99.90;;;;;;5052138;28;20233;-93
2022/11/26 10:53:54;;;;;;;5.97;5.03;;;10.20;99.90;;;;;;5034272;28;20255;-92
2022/11/26 10:56:40;;;;;;;5.17;4.70;;;10.30;99.90;;;;;;5033766;28;20300;-92
2022/11/26 10:59:21;;;;;;;3.77;3.30;;;10.40;99.90;;;;;;5033259;28;20439;-94
2022/11/26 11:01:47;;;;;;;9.60;4.33;;;10.40;99.90;;;;;;5033477;28;20248;-95
2022/11/26 11:04:27;;;;;;;5.27;4.30;;;10.40;99.90;;;;;;5018594;28;20222;-92
2022/11/26 11:06:53;;;;;;;13.07;4.37;;;10.50;99.90;;;;;;5034532;28;20681;-89
2022/11/26 11:09:30;;;;;;;19.93;4.70;;;10.50;99.90;;;;;;5014367;28;20690;-93
2022/11/26 11:12:21;;;;;;;10.83;4.40;;;10.60;99.90;;;;;;5035374;28;20182;-91
2022/11/26 11:14:49;;;;;;;6.60;4.50;;;10.60;99.90;;;;;;5034361;28;20214;-91
2022/11/26 11:17:26;;;;;;;19.87;5.27;;;10.70;99.90;;;;;;5018606;28;20308;-92
2022/11/26 11:19:52;;;;;;;10.23;5.40;;;10.80;99.90;;;;;;5035613;28;20693;-92
2022/11/26 11:22:22;;;;;;;7.07;4.30;;;11.00;99.90;;;;;;5016734;28;20232;-94
2022/11/26 11:24:48;;;;;;;6.43;3.97;;;10.90;99.90;;;;;;5020180;28;20779;-95
2022/11/26 11:27:40;;;;;;;7.37;4.27;;;10.90;99.90;;;;;;5036828;28;20178;-93
2022/11/26 11:30:22;;;;;;;12.07;7.43;;;10.80;99.90;;;;;;5014780;28;20252;-93
2022/11/26 11:32:49;;;;;;;27.53;15.00;;;10.90;99.90;;;;;;5023688;28;20282;-92
2022/11/26 11:35:21;;;;;;;15.87;8.40;;;10.90;99.90;;;;;;5000932;28;20744;-94
2022/11/26 11:37:54;;;;;;;15.03;7.83;;;11.00;99.90;;;;;;5034779;28;20214;-92
2022/11/26 11:40:26;;;;;;;11.77;7.10;;;11.10;99.90;;;;;;5014959;28;20577;-94
2022/11/26 11:42:59;;;;;;;9.23;6.77;;;11.10;99.90;;;;;;5034749;28;20219;-94
2022/11/26 11:45:28;;;;;;;28.00;6.73;;;10.90;99.90;;;;;;5032731;28;20325;-94
2022/11/26 11:47:57;;;;;;;29.07;11.40;;;11.00;99.90;;;;;;5032107;28;20639;-93
2022/11/26 11:50:34;;;;;;;11.70;5.10;;;10.90;99.90;;;;;;5040892;28;20727;-91
2022/11/26 11:53:00;;;;;;;21.33;13.10;;;10.80;99.90;;;;;;5033572;28;20209;-93
2022/11/26 11:55:51;;;;;;;14.03;6.67;;;10.80;99.90;;;;;;5034109;28;20289;-95
2022/11/26 11:58:29;;;;;;;12.37;7.93;;;10.70;99.90;;;;;;5030836;28;20210;-94
2022/11/26 12:01:27;;;;;;;12.43;5.47;;;10.70;99.90;;;;;;5036139;28;20256;-94
2022/11/26 12:03:59;;;;;;;12.07;6.30;;;10.90;99.90;;;;;;5034296;28;20222;-96
2022/11/26 12:06:39;;;;;;;16.23;5.90;;;11.00;99.90;;;;;;5034364;28;20191;-93
2022/11/26 12:09:27;;;;;;;9.17;5.00;;;11.10;99.90;;;;;;5034376;28;20178;-95
2022/11/26 12:11:58;;;;;;;15.20;5.93;;;11.20;99.90;;;;;;5033094;28;20722;-93
2022/11/26 12:14:33;;;;;;;8.27;3.93;;;11.10;99.90;;;;;;5032384;28;20240;-94
2022/11/26 12:17:13;;;;;;;10.83;5.27;;;11.00;99.90;;;;;;5032942;28;20218;-92
2022/11/26 12:19:52;;;;;;;7.53;4.07;;;11.00;99.90;;;;;;5033009;28;20225;-95
2022/11/26 12:22:30;;;;;;;16.23;4.83;;;11.00;99.90;;;;;;5033267;28;20222;-92
2022/11/26 12:25:31;;;;;;;12.70;4.67;;;11.00;99.90;;;;;;5029538;28;20226;-93
2022/11/26 12:28:04;;;;;;;7.37;4.13;;;11.00;99.90;;;;;;5032261;28;20690;-92
2022/11/26 12:30:44;;;;;;;9.10;4.60;;;10.80;99.90;;;;;;5033332;28;20190;-94
2022/11/26 12:33:26;;;;;;;8.17;4.07;;;10.80;99.90;;;;;;5028068;28;20569;-94
2022/11/26 12:35:55;;;;;;;15.83;5.60;;;10.80;99.90;;;;;;5032549;28;20297;-94
2022/11/26 12:38:23;;;;;;;9.00;5.17;;;10.80;99.90;;;;;;5033807;28;20207;-94
2022/11/26 12:40:51;;;;;;;10.80;5.00;;;10.80;99.90;;;;;;5031912;28;20218;-93
2022/11/26 12:43:51;;;;;;;4.90;4.20;;;10.70;99.90;;;;;;5032501;28;20223;-93
2022/11/26 12:46:43;;;;;;;5.00;3.93;;;10.70;99.90;;;;;;5030594;28;20233;-94
2022/11/26 12:49:51;;;;;;;10.77;6.27;;;10.80;99.90;;;;;;5034772;28;20226;-94
2022/11/26 12:52:42;;;;;;;3.70;3.40;;;10.80;99.90;;;;;;5032609;28;20217;-93
2022/11/26 12:55:34;;;;;;;3.07;2.77;;;10.80;99.90;;;;;;5034160;28;20214;-95
2022/11/26 12:58:20;;;;;;;4.87;2.83;;;10.80;99.90;;;;;;5031017;28;20229;-95
2022/11/26 13:00:48;;;;;;;5.47;3.40;;;10.80;99.90;;;;;;5034013;28;20221;-94
2022/11/26 13:03:16;;;;;;;10.17;4.53;;;10.80;99.90;;;;;;5018880;28;20609;-95
2022/11/26 13:06:01;;;;;;;12.87;6.57;;;10.80;99.90;;;;;;5031723;28;20230;-93
2022/11/26 13:08:53;;;;;;;5.67;3.23;;;10.80;99.90;;;;;;5030320;28;20339;-94
2022/11/26 13:11:31;;;;;;;10.17;4.77;;;10.70;99.90;;;;;;5009920;28;20233;-93